sensor_id;sensor_type;location;lat;lon;timestamp;pressure;altitude;pressure_sealevel;temperature;humidity
34328;BME280;20588;48.840;10.064;2023-04-15T00:01:43;95505.47;;;2.98;nan
34328;BME280;20588;48.840;10.064;2023-04-15T00:04:09;95506.22;;;2.99;nan
34328;BME280;20588;48.840;10.064;2023-04-15T00:06:36;95507.22;;;2.98;nan
34328;BME280;20588;48.840;10.064;2023-04-15T00:09:04;95507.41;;;2.96;nan
34328;BME280;20588;48.840;10.064;2023-04-15T00:11:30;95510.72;;;2.97;nan
34328;BME280;20588;48.840;10.064;2023-04-15T00:13:56;95507.59;;;2.95;nan
34328;BME280;20588;48.840;10.064;2023-04-15T00:16:23;95508.91;;;2.91;nan
34328;BME280;20588;48.840;10.064;2023-04-15T00:18:49;95503.06;;;2.90;nan
34328;BME280;20588;48.840;10.064;2023-04-15T00:21:16;95501.28;;;2.91;nan
34328;BME280;20588;48.840;10.064;2023-04-15T00:23:42;95497.19;;;2.90;nan
34328;BME280;20588;48.840;10.064;2023-04-15T00:26:08;95498.94;;;2.89;nan
34328;BME280;20588;48.840;10.064;2023-04-15T00:28:34;95495.63;;;2.89;nan
34328;BME280;20588;48.840;10.064;2023-04-15T00:31:01;95496.00;;;2.86;nan
34328;BME280;20588;48.840;10.064;2023-04-15T00:33:27;95493.66;;;2.84;nan
34328;BME280;20588;48.840;10.064;2023-04-15T00:35:53;95496.97;;;2.85;nan
34328;BME280;20588;48.840;10.064;2023-04-15T00:38:19;95498.75;;;2.84;nan
34328;BME280;20588;48.840;10.064;2023-04-15T00:40:45;95492.88;;;2.84;nan
34328;BME280;20588;48.840;10.064;2023-04-15T00:43:11;95486.41;;;2.81;nan
34328;BME280;20588;48.840;10.064;2023-04-15T00:45:37;95488.16;;;2.81;nan
34328;BME280;20588;48.840;10.064;2023-04-15T00:48:04;95495.97;;;2.79;nan
34328;BME280;20588;48.840;10.064;2023-04-15T00:50:32;95496.53;;;2.75;nan
34328;BME280;20588;48.840;10.064;2023-04-15T00:52:58;95489.28;;;2.72;nan
34328;BME280;20588;48.840;10.064;2023-04-15T00:55:24;95499.81;;;2.69;nan
34328;BME280;20588;48.840;10.064;2023-04-15T00:57:50;95492.56;;;2.66;nan
34328;BME280;20588;48.840;10.064;2023-04-15T01:00:16;95489.41;;;2.64;nan
34328;BME280;20588;48.840;10.064;2023-04-15T01:02:43;95496.47;;;2.62;nan
34328;BME280;20588;48.840;10.064;2023-04-15T01:05:09;95491.56;;;2.60;nan
34328;BME280;20588;48.840;10.064;2023-04-15T01:07:35;95489.97;;;2.59;nan
34328;BME280;20588;48.840;10.064;2023-04-15T01:10:02;95493.69;;;2.57;nan
34328;BME280;20588;48.840;10.064;2023-04-15T01:12:29;95495.03;;;2.53;nan
34328;BME280;20588;48.840;10.064;2023-04-15T01:14:56;95488.94;;;2.47;nan
34328;BME280;20588;48.840;10.064;2023-04-15T01:17:24;95490.09;;;2.45;nan
34328;BME280;20588;48.840;10.064;2023-04-15T01:19:50;95484.78;;;2.40;nan
34328;BME280;20588;48.840;10.064;2023-04-15T01:22:17;95482.44;;;2.38;nan
34328;BME280;20588;48.840;10.064;2023-04-15T01:24:50;95486.31;;;2.34;nan
34328;BME280;20588;48.840;10.064;2023-04-15T01:27:17;95483.72;;;2.28;nan
34328;BME280;20588;48.840;10.064;2023-04-15T01:29:44;95484.47;;;2.22;nan
34328;BME280;20588;48.840;10.064;2023-04-15T01:32:10;95483.09;;;2.19;nan
34328;BME280;20588;48.840;10.064;2023-04-15T01:34:36;95488.34;;;2.18;nan
34328;BME280;20588;48.840;10.064;2023-04-15T01:37:02;95494.19;;;2.18;nan
34328;BME280;20588;48.840;10.064;2023-04-15T01:39:28;95497.88;;;2.16;nan
34328;BME280;20588;48.840;10.064;2023-04-15T01:41:54;95492.19;;;2.14;nan
34328;BME280;20588;48.840;10.064;2023-04-15T01:44:20;95496.69;;;2.12;nan
34328;BME280;20588;48.840;10.064;2023-04-15T01:46:46;95498.25;;;2.13;nan
34328;BME280;20588;48.840;10.064;2023-04-15T01:49:13;95495.53;;;2.14;nan
34328;BME280;20588;48.840;10.064;2023-04-15T01:51:39;95495.34;;;2.16;nan
34328;BME280;20588;48.840;10.064;2023-04-15T01:54:05;95493.22;;;2.19;nan
34328;BME280;20588;48.840;10.064;2023-04-15T01:56:31;95489.09;;;2.18;nan
34328;BME280;20588;48.840;10.064;2023-04-15T01:58:58;95484.22;;;2.17;nan
34328;BME280;20588;48.840;10.064;2023-04-15T02:01:24;95486.94;;;2.15;nan
34328;BME280;20588;48.840;10.064;2023-04-15T02:03:50;95484.41;;;2.15;nan
34328;BME280;20588;48.840;10.064;2023-04-15T02:06:17;95480.31;;;2.14;nan
34328;BME280;20588;48.840;10.064;2023-04-15T02:08:43;95484.75;;;2.12;nan
34328;BME280;20588;48.840;10.064;2023-04-15T02:11:09;95480.66;;;2.11;nan
34328;BME280;20588;48.840;10.064;2023-04-15T02:13:35;95479.13;;;2.10;nan
34328;BME280;20588;48.840;10.064;2023-04-15T02:16:01;95472.44;;;2.09;nan
34328;BME280;20588;48.840;10.064;2023-04-15T02:18:27;95474.81;;;2.11;nan
34328;BME280;20588;48.840;10.064;2023-04-15T02:20:54;95481.09;;;2.15;nan
34328;BME280;20588;48.840;10.064;2023-04-15T02:23:22;95472.94;;;2.19;nan
34328;BME280;20588;48.840;10.064;2023-04-15T02:25:48;95471.59;;;2.23;nan
34328;BME280;20588;48.840;10.064;2023-04-15T02:28:14;95472.00;;;2.27;nan
34328;BME280;20588;48.840;10.064;2023-04-15T02:30:40;95466.75;;;2.28;nan
34328;BME280;20588;48.840;10.064;2023-04-15T02:33:06;95470.09;;;2.29;nan
34328;BME280;20588;48.840;10.064;2023-04-15T02:35:32;95466.38;;;2.31;nan
34328;BME280;20588;48.840;10.064;2023-04-15T02:37:58;95467.94;;;2.32;nan
34328;BME280;20588;48.840;10.064;2023-04-15T02:40:25;95473.63;;;2.34;nan
34328;BME280;20588;48.840;10.064;2023-04-15T02:42:51;95475.38;;;2.34;nan
34328;BME280;20588;48.840;10.064;2023-04-15T02:45:17;95474.41;;;2.35;nan
34328;BME280;20588;48.840;10.064;2023-04-15T02:47:48;95474.06;;;2.38;nan
34328;BME280;20588;48.840;10.064;2023-04-15T02:50:14;95468.97;;;2.38;nan
34328;BME280;20588;48.840;10.064;2023-04-15T02:52:41;95463.91;;;2.38;nan
34328;BME280;20588;48.840;10.064;2023-04-15T02:55:07;95464.66;;;2.38;nan
34328;BME280;20588;48.840;10.064;2023-04-15T02:57:34;95466.44;;;2.38;nan
34328;BME280;20588;48.840;10.064;2023-04-15T03:00:03;95464.47;;;2.40;nan
34328;BME280;20588;48.840;10.064;2023-04-15T03:02:37;95466.25;;;2.39;nan
34328;BME280;20588;48.840;10.064;2023-04-15T03:05:04;95466.81;;;2.41;nan
34328;BME280;20588;48.840;10.064;2023-04-15T03:07:30;95474.25;;;2.43;nan
34328;BME280;20588;48.840;10.064;2023-04-15T03:09:56;95469.19;;;2.43;nan
34328;BME280;20588;48.840;10.064;2023-04-15T03:12:23;95470.78;;;2.44;nan
34328;BME280;20588;48.840;10.064;2023-04-15T03:14:49;95468.81;;;2.46;nan
34328;BME280;20588;48.840;10.064;2023-04-15T03:17:15;95466.28;;;2.46;nan
34328;BME280;20588;48.840;10.064;2023-04-15T03:19:41;95469.03;;;2.51;nan
34328;BME280;20588;48.840;10.064;2023-04-15T03:22:07;95466.50;;;2.51;nan
34328;BME280;20588;48.840;10.064;2023-04-15T03:24:33;95458.09;;;2.50;nan
34328;BME280;20588;48.840;10.064;2023-04-15T03:26:59;95462.41;;;2.50;nan
34328;BME280;20588;48.840;10.064;2023-04-15T03:29:26;95467.50;;;2.50;nan
34328;BME280;20588;48.840;10.064;2023-04-15T03:31:52;95463.72;;;2.46;nan
34328;BME280;20588;48.840;10.064;2023-04-15T03:34:18;95466.47;;;2.44;nan
34328;BME280;20588;48.840;10.064;2023-04-15T03:36:45;95468.03;;;2.45;nan
34328;BME280;20588;48.840;10.064;2023-04-15T03:39:11;95473.88;;;2.46;nan
34328;BME280;20588;48.840;10.064;2023-04-15T03:41:37;95477.03;;;2.48;nan
34328;BME280;20588;48.840;10.064;2023-04-15T03:44:03;95472.94;;;2.47;nan
34328;BME280;20588;48.840;10.064;2023-04-15T03:46:29;95470.97;;;2.49;nan
34328;BME280;20588;48.840;10.064;2023-04-15T03:48:55;95479.19;;;2.51;nan
34328;BME280;20588;48.840;10.064;2023-04-15T03:51:21;95471.59;;;2.51;nan
34328;BME280;20588;48.840;10.064;2023-04-15T03:53:47;95468.25;;;2.50;nan
34328;BME280;20588;48.840;10.064;2023-04-15T03:56:13;95475.50;;;2.53;nan
34328;BME280;20588;48.840;10.064;2023-04-15T03:58:39;95473.75;;;2.54;nan
34328;BME280;20588;48.840;10.064;2023-04-15T04:01:05;95474.34;;;2.56;nan
34328;BME280;20588;48.840;10.064;2023-04-15T04:03:31;95477.84;;;2.55;nan
34328;BME280;20588;48.840;10.064;2023-04-15T04:05:58;95471.22;;;2.54;nan
34328;BME280;20588;48.840;10.064;2023-04-15T04:08:24;95472.19;;;2.53;nan
34328;BME280;20588;48.840;10.064;2023-04-15T04:10:50;95473.94;;;2.52;nan
34328;BME280;20588;48.840;10.064;2023-04-15T04:13:16;95480.19;;;2.50;nan
34328;BME280;20588;48.840;10.064;2023-04-15T04:15:42;95476.84;;;2.49;nan
34328;BME280;20588;48.840;10.064;2023-04-15T04:18:08;95484.47;;;2.49;nan
34328;BME280;20588;48.840;10.064;2023-04-15T04:20:34;95483.66;;;2.49;nan
34328;BME280;20588;48.840;10.064;2023-04-15T04:23:00;95477.03;;;2.48;nan
34328;BME280;20588;48.840;10.064;2023-04-15T04:25:26;95476.06;;;2.49;nan
34328;BME280;20588;48.840;10.064;2023-04-15T04:27:52;95483.66;;;2.49;nan
34328;BME280;20588;48.840;10.064;2023-04-15T04:30:18;95474.91;;;2.51;nan
34328;BME280;20588;48.840;10.064;2023-04-15T04:32:44;95477.84;;;2.55;nan
34328;BME280;20588;48.840;10.064;2023-04-15T04:35:11;95476.72;;;2.57;nan
34328;BME280;20588;48.840;10.064;2023-04-15T04:37:37;95480.00;;;2.58;nan
34328;BME280;20588;48.840;10.064;2023-04-15T04:40:03;95476.34;;;2.60;nan
34328;BME280;20588;48.840;10.064;2023-04-15T04:42:29;95476.16;;;2.62;nan
34328;BME280;20588;48.840;10.064;2023-04-15T04:44:56;95472.44;;;2.64;nan
34328;BME280;20588;48.840;10.064;2023-04-15T04:47:22;95475.59;;;2.66;nan
34328;BME280;20588;48.840;10.064;2023-04-15T04:49:48;95477.56;;;2.71;nan
34328;BME280;20588;48.840;10.064;2023-04-15T04:52:14;95480.31;;;2.76;nan
34328;BME280;20588;48.840;10.064;2023-04-15T04:54:40;95479.38;;;2.83;nan
34328;BME280;20588;48.840;10.064;2023-04-15T04:57:06;95474.75;;;2.93;nan
34328;BME280;20588;48.840;10.064;2023-04-15T04:59:32;95480.66;;;3.07;nan
34328;BME280;20588;48.840;10.064;2023-04-15T05:01:59;95483.84;;;3.22;nan
34328;BME280;20588;48.840;10.064;2023-04-15T05:04:25;95484.69;;;3.35;nan
34328;BME280;20588;48.840;10.064;2023-04-15T05:06:51;95473.59;;;3.56;nan
34328;BME280;20588;48.840;10.064;2023-04-15T05:09:17;95478.53;;;3.77;nan
34328;BME280;20588;48.840;10.064;2023-04-15T05:11:43;95480.91;;;3.98;nan
34328;BME280;20588;48.840;10.064;2023-04-15T05:14:09;95463.84;;;4.18;nan
34328;BME280;20588;48.840;10.064;2023-04-15T05:16:35;95473.25;;;4.37;nan
34328;BME280;20588;48.840;10.064;2023-04-15T05:19:02;95477.38;;;4.51;nan
34328;BME280;20588;48.840;10.064;2023-04-15T05:21:28;95483.59;;;4.68;nan
34328;BME280;20588;48.840;10.064;2023-04-15T05:23:54;95478.09;;;4.84;nan
34328;BME280;20588;48.840;10.064;2023-04-15T05:26:20;95475.47;;;5.04;nan
34328;BME280;20588;48.840;10.064;2023-04-15T05:28:46;95481.31;;;5.17;nan
34328;BME280;20588;48.840;10.064;2023-04-15T05:31:12;95485.53;;;5.36;nan
34328;BME280;20588;48.840;10.064;2023-04-15T05:33:39;95492.06;;;5.63;nan
34328;BME280;20588;48.840;10.064;2023-04-15T05:36:05;95485.72;;;5.86;nan
34328;BME280;20588;48.840;10.064;2023-04-15T05:38:31;95489.47;;;6.08;nan
34328;BME280;20588;48.840;10.064;2023-04-15T05:40:57;95489.19;;;6.22;nan
34328;BME280;20588;48.840;10.064;2023-04-15T05:43:23;95486.81;;;6.45;nan
34328;BME280;20588;48.840;10.064;2023-04-15T05:45:50;95491.00;;;6.64;nan
34328;BME280;20588;48.840;10.064;2023-04-15T05:48:16;95494.19;;;6.78;nan
34328;BME280;20588;48.840;10.064;2023-04-15T05:50:42;95491.16;;;6.87;nan
34328;BME280;20588;48.840;10.064;2023-04-15T05:53:08;95494.22;;;6.96;nan
34328;BME280;20588;48.840;10.064;2023-04-15T05:55:34;95492.34;;;7.03;nan
34328;BME280;20588;48.840;10.064;2023-04-15T05:58:00;95503.31;;;7.10;nan
34328;BME280;20588;48.840;10.064;2023-04-15T06:00:26;95495.34;;;7.18;nan
34328;BME280;20588;48.840;10.064;2023-04-15T06:02:52;95492.94;;;7.23;nan
34328;BME280;20588;48.840;10.064;2023-04-15T06:05:19;95492.66;;;7.31;nan
34328;BME280;20588;48.840;10.064;2023-04-15T06:07:45;95496.13;;;7.36;nan
34328;BME280;20588;48.840;10.064;2023-04-15T06:10:11;95504.66;;;7.30;nan
34328;BME280;20588;48.840;10.064;2023-04-15T06:12:37;95495.22;;;7.31;nan
34328;BME280;20588;48.840;10.064;2023-04-15T06:15:04;95503.75;;;7.25;nan
34328;BME280;20588;48.840;10.064;2023-04-15T06:17:31;95503.09;;;7.29;nan
34328;BME280;20588;48.840;10.064;2023-04-15T06:19:57;95500.88;;;7.33;nan
34328;BME280;20588;48.840;10.064;2023-04-15T06:22:23;95508.25;;;7.41;nan
34328;BME280;20588;48.840;10.064;2023-04-15T06:24:49;95504.63;;;7.49;nan
34328;BME280;20588;48.840;10.064;2023-04-15T06:27:16;95509.38;;;7.63;nan
34328;BME280;20588;48.840;10.064;2023-04-15T06:29:42;95505.09;;;7.75;nan
34328;BME280;20588;48.840;10.064;2023-04-15T06:32:08;95506.22;;;7.79;nan
34328;BME280;20588;48.840;10.064;2023-04-15T06:34:35;95503.56;;;7.86;nan
34328;BME280;20588;48.840;10.064;2023-04-15T06:37:01;95503.00;;;7.84;nan
34328;BME280;20588;48.840;10.064;2023-04-15T06:39:27;95509.28;;;7.99;nan
34328;BME280;20588;48.840;10.064;2023-04-15T06:41:53;95510.00;;;8.18;nan
34328;BME280;20588;48.840;10.064;2023-04-15T06:44:19;95506.63;;;8.35;nan
34328;BME280;20588;48.840;10.064;2023-04-15T06:46:45;95508.19;;;8.59;nan
34328;BME280;20588;48.840;10.064;2023-04-15T06:49:11;95520.69;;;8.90;nan
34328;BME280;20588;48.840;10.064;2023-04-15T06:51:37;95517.34;;;9.13;nan
34328;BME280;20588;48.840;10.064;2023-04-15T06:54:04;95514.84;;;9.30;nan
34328;BME280;20588;48.840;10.064;2023-04-15T06:56:34;95512.94;;;9.37;nan
34328;BME280;20588;48.840;10.064;2023-04-15T06:59:01;95510.69;;;9.40;nan
34328;BME280;20588;48.840;10.064;2023-04-15T07:01:27;95513.13;;;9.47;nan
34328;BME280;20588;48.840;10.064;2023-04-15T07:03:53;95507.06;;;9.53;nan
34328;BME280;20588;48.840;10.064;2023-04-15T07:06:19;95510.66;;;9.52;nan
34328;BME280;20588;48.840;10.064;2023-04-15T07:08:46;95516.47;;;9.59;nan
34328;BME280;20588;48.840;10.064;2023-04-15T07:11:12;95514.63;;;9.71;nan
34328;BME280;20588;48.840;10.064;2023-04-15T07:13:39;95517.28;;;9.76;nan
34328;BME280;20588;48.840;10.064;2023-04-15T07:16:05;95510.41;;;9.93;nan
34328;BME280;20588;48.840;10.064;2023-04-15T07:18:31;95513.59;;;10.00;nan
34328;BME280;20588;48.840;10.064;2023-04-15T07:20:57;95507.06;;;10.20;nan
34328;BME280;20588;48.840;10.064;2023-04-15T07:23:23;95501.53;;;10.45;nan
34328;BME280;20588;48.840;10.064;2023-04-15T07:25:49;95509.78;;;10.63;nan
34328;BME280;20588;48.840;10.064;2023-04-15T07:28:16;95512.31;;;10.96;nan
34328;BME280;20588;48.840;10.064;2023-04-15T07:30:42;95509.44;;;11.31;nan
34328;BME280;20588;48.840;10.064;2023-04-15T07:33:08;95511.72;;;11.71;nan
34328;BME280;20588;48.840;10.064;2023-04-15T07:35:34;95511.53;;;11.77;nan
34328;BME280;20588;48.840;10.064;2023-04-15T07:38:00;95510.53;;;11.78;nan
34328;BME280;20588;48.840;10.064;2023-04-15T07:40:27;95512.28;;;11.73;nan
34328;BME280;20588;48.840;10.064;2023-04-15T07:42:54;95505.03;;;11.70;nan
34328;BME280;20588;48.840;10.064;2023-04-15T07:45:21;95504.25;;;11.48;nan
34328;BME280;20588;48.840;10.064;2023-04-15T07:47:47;95506.75;;;11.43;nan
34328;BME280;20588;48.840;10.064;2023-04-15T07:50:13;95509.63;;;11.46;nan
34328;BME280;20588;48.840;10.064;2023-04-15T07:52:40;95500.09;;;11.47;nan
34328;BME280;20588;48.840;10.064;2023-04-15T07:55:07;95506.09;;;11.31;nan
34328;BME280;20588;48.840;10.064;2023-04-15T07:57:34;95511.91;;;11.43;nan
34328;BME280;20588;48.840;10.064;2023-04-15T08:00:00;95495.97;;;11.46;nan
34328;BME280;20588;48.840;10.064;2023-04-15T08:02:28;95504.03;;;11.54;nan
34328;BME280;20588;48.840;10.064;2023-04-15T08:04:54;95503.22;;;11.70;nan
34328;BME280;20588;48.840;10.064;2023-04-15T08:07:20;95496.72;;;11.63;nan
34328;BME280;20588;48.840;10.064;2023-04-15T08:09:47;95504.19;;;11.64;nan
34328;BME280;20588;48.840;10.064;2023-04-15T08:12:13;95503.53;;;11.74;nan
34328;BME280;20588;48.840;10.064;2023-04-15T08:14:39;95501.69;;;11.96;nan
34328;BME280;20588;48.840;10.064;2023-04-15T08:17:05;95494.88;;;12.11;nan
34328;BME280;20588;48.840;10.064;2023-04-15T08:19:32;95510.94;;;12.18;nan
34328;BME280;20588;48.840;10.064;2023-04-15T08:21:58;95512.78;;;12.23;nan
34328;BME280;20588;48.840;10.064;2023-04-15T08:24:24;95505.84;;;12.28;nan
34328;BME280;20588;48.840;10.064;2023-04-15T08:26:51;95506.19;;;12.37;nan
34328;BME280;20588;48.840;10.064;2023-04-15T08:29:17;95501.09;;;12.47;nan
34328;BME280;20588;48.840;10.064;2023-04-15T08:31:44;95511.47;;;12.52;nan
34328;BME280;20588;48.840;10.064;2023-04-15T08:34:13;95505.78;;;12.50;nan
34328;BME280;20588;48.840;10.064;2023-04-15T08:36:40;95513.75;;;12.48;nan
34328;BME280;20588;48.840;10.064;2023-04-15T08:39:06;95512.28;;;12.57;nan
34328;BME280;20588;48.840;10.064;2023-04-15T08:42:00;95517.97;;;12.59;nan
34328;BME280;20588;48.840;10.064;2023-04-15T08:44:29;95519.47;;;12.50;nan
34328;BME280;20588;48.840;10.064;2023-04-15T08:46:59;95509.22;;;12.60;nan
34328;BME280;20588;48.840;10.064;2023-04-15T08:49:26;95522.50;;;12.79;nan
34328;BME280;20588;48.840;10.064;2023-04-15T08:51:54;95511.19;;;12.85;nan
34328;BME280;20588;48.840;10.064;2023-04-15T08:54:21;95509.75;;;12.99;nan
34328;BME280;20588;48.840;10.064;2023-04-15T08:56:48;95512.69;;;13.18;nan
34328;BME280;20588;48.840;10.064;2023-04-15T08:59:14;95515.41;;;13.43;nan
34328;BME280;20588;48.840;10.064;2023-04-15T09:01:41;95510.88;;;13.70;nan
34328;BME280;20588;48.840;10.064;2023-04-15T09:04:08;95511.44;;;13.87;nan
34328;BME280;20588;48.840;10.064;2023-04-15T09:06:35;95505.28;;;14.13;nan
34328;BME280;20588;48.840;10.064;2023-04-15T09:09:01;95503.78;;;14.32;nan
34328;BME280;20588;48.840;10.064;2023-04-15T09:11:28;95513.09;;;14.68;nan
34328;BME280;20588;48.840;10.064;2023-04-15T09:13:55;95508.38;;;15.10;nan
34328;BME280;20588;48.840;10.064;2023-04-15T09:16:22;95505.47;;;15.37;nan
34328;BME280;20588;48.840;10.064;2023-04-15T09:18:48;95507.78;;;15.53;nan
34328;BME280;20588;48.840;10.064;2023-04-15T09:21:16;95506.19;;;15.57;nan
34328;BME280;20588;48.840;10.064;2023-04-15T09:23:59;95509.50;;;15.73;nan
34328;BME280;20588;48.840;10.064;2023-04-15T09:26:33;95501.00;;;15.67;nan
34328;BME280;20588;48.840;10.064;2023-04-15T09:29:06;95508.50;;;15.64;nan
34328;BME280;20588;48.840;10.064;2023-04-15T09:31:33;95507.72;;;15.73;nan
34328;BME280;20588;48.840;10.064;2023-04-15T09:33:59;95504.84;;;15.75;nan
34328;BME280;20588;48.840;10.064;2023-04-15T09:36:26;95504.59;;;15.71;nan
34328;BME280;20588;48.840;10.064;2023-04-15T09:38:59;95511.59;;;15.71;nan
34328;BME280;20588;48.840;10.064;2023-04-15T09:41:26;95506.41;;;15.71;nan
34328;BME280;20588;48.840;10.064;2023-04-15T09:43:52;95505.06;;;15.83;nan
34328;BME280;20588;48.840;10.064;2023-04-15T09:46:18;95506.41;;;15.71;nan
34328;BME280;20588;48.840;10.064;2023-04-15T09:48:44;95507.94;;;15.77;nan
34328;BME280;20588;48.840;10.064;2023-04-15T09:51:11;95509.75;;;15.76;nan
34328;BME280;20588;48.840;10.064;2023-04-15T09:53:37;95517.50;;;15.86;nan
34328;BME280;20588;48.840;10.064;2023-04-15T09:56:03;95519.84;;;15.83;nan
34328;BME280;20588;48.840;10.064;2023-04-15T09:58:33;95515.44;;;15.83;nan
34328;BME280;20588;48.840;10.064;2023-04-15T10:01:02;95522.16;;;15.89;nan
34328;BME280;20588;48.840;10.064;2023-04-15T10:03:31;95519.06;;;15.82;nan
34328;BME280;20588;48.840;10.064;2023-04-15T10:05:59;95523.22;;;15.83;nan
34328;BME280;20588;48.840;10.064;2023-04-15T10:08:28;95519.28;;;15.86;nan
34328;BME280;20588;48.840;10.064;2023-04-15T10:10:54;95513.34;;;15.85;nan
34328;BME280;20588;48.840;10.064;2023-04-15T10:13:22;95512.09;;;15.78;nan
34328;BME280;20588;48.840;10.064;2023-04-15T10:18:19;95521.31;;;15.99;nan
34328;BME280;20588;48.840;10.064;2023-04-15T10:20:47;95522.59;;;16.06;nan
34328;BME280;20588;48.840;10.064;2023-04-15T10:23:14;95516.50;;;16.21;nan
34328;BME280;20588;48.840;10.064;2023-04-15T10:25:41;95520.91;;;16.25;nan
34328;BME280;20588;48.840;10.064;2023-04-15T10:28:07;95518.34;;;16.20;nan
34328;BME280;20588;48.840;10.064;2023-04-15T10:30:34;95522.25;;;16.18;nan
34328;BME280;20588;48.840;10.064;2023-04-15T10:33:03;95527.94;;;16.20;nan
34328;BME280;20588;48.840;10.064;2023-04-15T10:35:31;95527.69;;;16.21;nan
34328;BME280;20588;48.840;10.064;2023-04-15T10:37:59;95527.56;;;16.42;nan
34328;BME280;20588;48.840;10.064;2023-04-15T10:40:28;95531.19;;;16.46;nan
34328;BME280;20588;48.840;10.064;2023-04-15T10:43:01;95529.41;;;16.75;nan
34328;BME280;20588;48.840;10.064;2023-04-15T10:45:32;95527.53;;;16.80;nan
34328;BME280;20588;48.840;10.064;2023-04-15T10:48:01;95523.28;;;16.61;nan
34328;BME280;20588;48.840;10.064;2023-04-15T10:50:29;95531.19;;;16.46;nan
34328;BME280;20588;48.840;10.064;2023-04-15T10:52:56;95528.31;;;16.47;nan
34328;BME280;20588;48.840;10.064;2023-04-15T10:55:25;95531.19;;;16.46;nan
34328;BME280;20588;48.840;10.064;2023-04-15T10:57:58;95535.75;;;16.59;nan
34328;BME280;20588;48.840;10.064;2023-04-15T11:00:30;95538.47;;;16.44;nan
34328;BME280;20588;48.840;10.064;2023-04-15T11:03:14;95539.50;;;16.38;nan
34328;BME280;20588;48.840;10.064;2023-04-15T11:08:10;95536.38;;;16.41;nan
34328;BME280;20588;48.840;10.064;2023-04-15T11:13:04;95539.50;;;16.48;nan
34328;BME280;20588;48.840;10.064;2023-04-15T11:15:38;95548.06;;;16.43;nan
34328;BME280;20588;48.840;10.064;2023-04-15T11:20:36;95546.78;;;16.46;nan
34328;BME280;20588;48.840;10.064;2023-04-15T11:23:02;95552.22;;;16.39;nan
34328;BME280;20588;48.840;10.064;2023-04-15T11:25:30;95557.97;;;16.36;nan
34328;BME280;20588;48.840;10.064;2023-04-15T11:27:58;95565.00;;;16.31;nan
34328;BME280;20588;48.840;10.064;2023-04-15T11:30:26;95568.47;;;16.16;nan
34328;BME280;20588;48.840;10.064;2023-04-15T11:32:56;95564.00;;;16.27;nan
34328;BME280;20588;48.840;10.064;2023-04-15T11:35:23;95571.19;;;16.45;nan
34328;BME280;20588;48.840;10.064;2023-04-15T11:37:49;95572.13;;;16.59;nan
34328;BME280;20588;48.840;10.064;2023-04-15T11:40:16;95572.75;;;16.46;nan
34328;BME280;20588;48.840;10.064;2023-04-15T11:42:48;95572.81;;;16.69;nan
34328;BME280;20588;48.840;10.064;2023-04-15T11:45:28;95574.44;;;16.65;nan
34328;BME280;20588;48.840;10.064;2023-04-15T11:47:54;95571.28;;;16.68;nan
34328;BME280;20588;48.840;10.064;2023-04-15T11:50:29;95578.25;;;16.78;nan
34328;BME280;20588;48.840;10.064;2023-04-15T11:52:59;95579.25;;;16.77;nan
34328;BME280;20588;48.840;10.064;2023-04-15T11:55:30;95575.94;;;17.05;nan
34328;BME280;20588;48.840;10.064;2023-04-15T12:00:39;95580.28;;;17.43;nan
34328;BME280;20588;48.840;10.064;2023-04-15T12:06:09;95584.88;;;17.51;nan
34328;BME280;20588;48.840;10.064;2023-04-15T12:09:12;95578.69;;;17.47;nan
34328;BME280;20588;48.840;10.064;2023-04-15T12:11:51;95584.53;;;17.34;nan
34328;BME280;20588;48.840;10.064;2023-04-15T12:14:28;95578.91;;;16.93;nan
34328;BME280;20588;48.840;10.064;2023-04-15T12:16:59;95582.94;;;16.71;nan
34328;BME280;20588;48.840;10.064;2023-04-15T12:19:30;95581.97;;;16.62;nan
34328;BME280;20588;48.840;10.064;2023-04-15T12:22:02;95578.19;;;16.44;nan
34328;BME280;20588;48.840;10.064;2023-04-15T12:24:31;95591.09;;;16.05;nan
34328;BME280;20588;48.840;10.064;2023-04-15T12:27:02;95591.78;;;15.62;nan
34328;BME280;20588;48.840;10.064;2023-04-15T12:29:29;95600.91;;;15.25;nan
34328;BME280;20588;48.840;10.064;2023-04-15T12:32:18;95600.66;;;14.86;nan
34328;BME280;20588;48.840;10.064;2023-04-15T12:34:52;95607.34;;;14.57;nan
34328;BME280;20588;48.840;10.064;2023-04-15T12:37:19;95619.72;;;14.30;nan
34328;BME280;20588;48.840;10.064;2023-04-15T12:39:48;95617.06;;;14.15;nan
34328;BME280;20588;48.840;10.064;2023-04-15T12:42:16;95619.59;;;13.95;nan
34328;BME280;20588;48.840;10.064;2023-04-15T12:44:42;95626.25;;;13.81;nan
34328;BME280;20588;48.840;10.064;2023-04-15T12:47:10;95628.97;;;13.59;nan
34328;BME280;20588;48.840;10.064;2023-04-15T12:49:37;95635.34;;;13.47;nan
34328;BME280;20588;48.840;10.064;2023-04-15T12:52:04;95634.25;;;13.33;nan
34328;BME280;20588;48.840;10.064;2023-04-15T12:54:31;95637.03;;;13.26;nan
34328;BME280;20588;48.840;10.064;2023-04-15T12:56:58;95641.50;;;13.36;nan
34328;BME280;20588;48.840;10.064;2023-04-15T12:59:24;95650.34;;;13.45;nan
34328;BME280;20588;48.840;10.064;2023-04-15T13:01:51;95651.50;;;13.64;nan
34328;BME280;20588;48.840;10.064;2023-04-15T13:04:19;95653.44;;;13.93;nan
34328;BME280;20588;48.840;10.064;2023-04-15T13:06:45;95659.47;;;14.04;nan
34328;BME280;20588;48.840;10.064;2023-04-15T13:09:11;95654.28;;;14.09;nan
34328;BME280;20588;48.840;10.064;2023-04-15T13:11:38;95658.47;;;14.10;nan
34328;BME280;20588;48.840;10.064;2023-04-15T13:14:05;95662.09;;;14.14;nan
34328;BME280;20588;48.840;10.064;2023-04-15T13:16:32;95666.22;;;14.15;nan
34328;BME280;20588;48.840;10.064;2023-04-15T13:18:59;95666.69;;;14.02;nan
34328;BME280;20588;48.840;10.064;2023-04-15T13:21:25;95662.22;;;13.82;nan
34328;BME280;20588;48.840;10.064;2023-04-15T13:23:52;95664.38;;;13.54;nan
34328;BME280;20588;48.840;10.064;2023-04-15T13:26:18;95670.44;;;13.33;nan
34328;BME280;20588;48.840;10.064;2023-04-15T13:28:45;95675.22;;;13.19;nan
34328;BME280;20588;48.840;10.064;2023-04-15T13:31:11;95673.34;;;13.10;nan
34328;BME280;20588;48.840;10.064;2023-04-15T13:33:37;95682.31;;;13.02;nan